sensor_id;sensor_type;location;lat;lon;timestamp;P1;durP1;ratioP1;P2;durP2;ratioP2
58528;SDS011;44322;52.968;5.816;2023-11-19T09:31:31;34.95;;;8.90;;
58528;SDS011;44322;52.968;5.816;2023-11-19T09:34:41;38.80;;;8.02;;
58528;SDS011;44322;52.968;5.816;2023-11-19T09:37:07;34.92;;;7.78;;
58528;SDS011;44322;52.968;5.816;2023-11-19T09:39:33;41.47;;;8.25;;
58528;SDS011;44322;52.968;5.816;2023-11-19T09:41:58;35.92;;;7.25;;
58528;SDS011;44322;52.968;5.816;2023-11-19T09:44:27;35.50;;;7.80;;
58528;SDS011;44322;52.968;5.816;2023-11-19T09:46:52;36.88;;;8.13;;
58528;SDS011;44322;52.968;5.816;2023-11-19T09:49:19;37.80;;;7.95;;
58528;SDS011;44322;52.968;5.816;2023-11-19T09:52:06;33.60;;;7.60;;
58528;SDS011;44322;52.968;5.816;2023-11-19T09:54:32;38.63;;;7.72;;
58528;SDS011;44322;52.968;5.816;2023-11-19T09:56:58;42.33;;;8.10;;
58528;SDS011;44322;52.968;5.816;2023-11-19T09:59:28;38.42;;;7.53;;
58528;SDS011;44322;52.968;5.816;2023-11-19T10:01:55;38.63;;;7.97;;
58528;SDS011;44322;52.968;5.816;2023-11-19T10:04:22;34.17;;;7.75;;
58528;SDS011;44322;52.968;5.816;2023-11-19T10:06:49;35.55;;;8.70;;
58528;SDS011;44322;52.968;5.816;2023-11-19T10:09:15;36.38;;;8.48;;
58528;SDS011;44322;52.968;5.816;2023-11-19T10:11:40;37.55;;;7.90;;
58528;SDS011;44322;52.968;5.816;2023-11-19T10:14:06;32.35;;;7.82;;
58528;SDS011;44322;52.968;5.816;2023-11-19T10:16:34;36.17;;;8.18;;
58528;SDS011;44322;52.968;5.816;2023-11-19T10:18:59;40.38;;;8.77;;
58528;SDS011;44322;52.968;5.816;2023-11-19T10:21:25;36.95;;;7.95;;
58528;SDS011;44322;52.968;5.816;2023-11-19T10:23:56;33.05;;;7.38;;
58528;SDS011;44322;52.968;5.816;2023-11-19T10:26:28;30.73;;;7.57;;
58528;SDS011;44322;52.968;5.816;2023-11-19T10:28:54;31.30;;;6.88;;
58528;SDS011;44322;52.968;5.816;2023-11-19T10:31:20;31.98;;;7.18;;
58528;SDS011;44322;52.968;5.816;2023-11-19T10:33:50;35.45;;;7.43;;
58528;SDS011;44322;52.968;5.816;2023-11-19T10:36:16;33.00;;;7.38;;
58528;SDS011;44322;52.968;5.816;2023-11-19T10:38:52;32.30;;;6.38;;
58528;SDS011;44322;52.968;5.816;2023-11-19T10:41:28;32.92;;;6.85;;
58528;SDS011;44322;52.968;5.816;2023-11-19T10:43:54;35.13;;;7.93;;
58528;SDS011;44322;52.968;5.816;2023-11-19T10:46:20;30.38;;;7.00;;
58528;SDS011;44322;52.968;5.816;2023-11-19T10:51:13;31.30;;;7.05;;
58528;SDS011;44322;52.968;5.816;2023-11-19T10:53:47;30.25;;;7.03;;
58528;SDS011;44322;52.968;5.816;2023-11-19T10:56:15;38.90;;;7.82;;
58528;SDS011;44322;52.968;5.816;2023-11-19T11:01:13;31.42;;;7.32;;
58528;SDS011;44322;52.968;5.816;2023-11-19T11:03:42;31.75;;;6.82;;
58528;SDS011;44322;52.968;5.816;2023-11-19T11:06:08;37.08;;;7.03;;
58528;SDS011;44322;52.968;5.816;2023-11-19T11:08:36;36.80;;;6.95;;
58528;SDS011;44322;52.968;5.816;2023-11-19T11:11:02;32.95;;;6.97;;
58528;SDS011;44322;52.968;5.816;2023-11-19T11:13:29;34.58;;;7.30;;
58528;SDS011;44322;52.968;5.816;2023-11-19T11:15:56;32.90;;;7.03;;
58528;SDS011;44322;52.968;5.816;2023-11-19T11:18:26;30.70;;;6.35;;
58528;SDS011;44322;52.968;5.816;2023-11-19T11:20:59;31.33;;;7.63;;
58528;SDS011;44322;52.968;5.816;2023-11-19T11:28:58;27.48;;;6.45;;
58528;SDS011;44322;52.968;5.816;2023-11-19T11:36:47;29.00;;;7.15;;
58528;SDS011;44322;52.968;5.816;2023-11-19T11:39:20;28.83;;;6.63;;
58528;SDS011;44322;52.968;5.816;2023-11-19T11:41:47;29.33;;;6.90;;
58528;SDS011;44322;52.968;5.816;2023-11-19T11:44:13;31.00;;;6.13;;
58528;SDS011;44322;52.968;5.816;2023-11-19T11:49:05;20.17;;;5.63;;
58528;SDS011;44322;52.968;5.816;2023-11-19T11:54:09;27.42;;;8.10;;
58528;SDS011;44322;52.968;5.816;2023-11-19T11:56:38;33.45;;;6.40;;
58528;SDS011;44322;52.968;5.816;2023-11-19T11:59:23;28.35;;;6.25;;
58528;SDS011;44322;52.968;5.816;2023-11-19T12:01:58;24.55;;;5.75;;
58528;SDS011;44322;52.968;5.816;2023-11-19T12:04:27;33.72;;;6.63;;
58528;SDS011;44322;52.968;5.816;2023-11-19T12:09:42;28.58;;;6.90;;
58528;SDS011;44322;52.968;5.816;2023-11-19T12:20:02;28.27;;;6.75;;
58528;SDS011;44322;52.968;5.816;2023-11-19T12:22:28;33.05;;;6.82;;
58528;SDS011;44322;52.968;5.816;2023-11-19T12:24:54;29.13;;;6.03;;
58528;SDS011;44322;52.968;5.816;2023-11-19T12:27:20;29.38;;;7.10;;
58528;SDS011;44322;52.968;5.816;2023-11-19T12:29:49;31.65;;;6.35;;
58528;SDS011;44322;52.968;5.816;2023-11-19T12:32:15;31.20;;;7.80;;
58528;SDS011;44322;52.968;5.816;2023-11-19T12:34:40;25.10;;;6.30;;
58528;SDS011;44322;52.968;5.816;2023-11-19T12:37:07;26.83;;;6.47;;
58528;SDS011;44322;52.968;5.816;2023-11-19T12:39:35;28.02;;;6.15;;
58528;SDS011;44322;52.968;5.816;2023-11-19T12:42:00;31.60;;;7.20;;
58528;SDS011;44322;52.968;5.816;2023-11-19T12:44:26;28.73;;;6.40;;
58528;SDS011;44322;52.968;5.816;2023-11-19T12:49:28;24.00;;;6.20;;
58528;SDS011;44322;52.968;5.816;2023-11-19T12:51:53;30.35;;;7.40;;
58528;SDS011;44322;52.968;5.816;2023-11-19T12:54:19;32.55;;;6.75;;
58528;SDS011;44322;52.968;5.816;2023-11-19T12:56:54;25.05;;;5.50;;
58528;SDS011;44322;52.968;5.816;2023-11-19T12:59:20;34.10;;;6.00;;
58528;SDS011;44322;52.968;5.816;2023-11-19T13:01:55;26.17;;;5.88;;
58528;SDS011;44322;52.968;5.816;2023-11-19T13:04:21;25.98;;;5.57;;
58528;SDS011;44322;52.968;5.816;2023-11-19T13:06:47;29.45;;;5.78;;
58528;SDS011;44322;52.968;5.816;2023-11-19T13:09:26;22.88;;;5.90;;
58528;SDS011;44322;52.968;5.816;2023-11-19T13:11:53;28.98;;;5.70;;
58528;SDS011;44322;52.968;5.816;2023-11-19T13:14:19;27.80;;;6.07;;
58528;SDS011;44322;52.968;5.816;2023-11-19T13:16:45;25.88;;;5.60;;
58528;SDS011;44322;52.968;5.816;2023-11-19T13:19:12;28.92;;;5.60;;
58528;SDS011;44322;52.968;5.816;2023-11-19T13:21:38;26.67;;;5.80;;
58528;SDS011;44322;52.968;5.816;2023-11-19T13:24:07;27.80;;;6.10;;
58528;SDS011;44322;52.968;5.816;2023-11-19T13:26:33;32.58;;;6.40;;
58528;SDS011;44322;52.968;5.816;2023-11-19T13:29:03;28.23;;;5.75;;
58528;SDS011;44322;52.968;5.816;2023-11-19T13:31:29;29.35;;;6.57;;
58528;SDS011;44322;52.968;5.816;2023-11-19T13:33:54;28.20;;;6.82;;
58528;SDS011;44322;52.968;5.816;2023-11-19T13:36:20;28.45;;;6.20;;
58528;SDS011;44322;52.968;5.816;2023-11-19T13:38:45;28.52;;;5.82;;
58528;SDS011;44322;52.968;5.816;2023-11-19T13:41:12;30.17;;;6.00;;
58528;SDS011;44322;52.968;5.816;2023-11-19T13:43:39;27.40;;;6.30;;
58528;SDS011;44322;52.968;5.816;2023-11-19T13:46:05;31.73;;;6.70;;
58528;SDS011;44322;52.968;5.816;2023-11-19T13:48:31;26.05;;;6.03;;
58528;SDS011;44322;52.968;5.816;2023-11-19T13:50:57;24.33;;;6.28;;
58528;SDS011;44322;52.968;5.816;2023-11-19T13:53:23;30.38;;;6.15;;
58528;SDS011;44322;52.968;5.816;2023-11-19T13:55:51;35.95;;;7.75;;
58528;SDS011;44322;52.968;5.816;2023-11-19T13:58:17;32.22;;;7.65;;
58528;SDS011;44322;52.968;5.816;2023-11-19T14:00:42;35.00;;;7.05;;
58528;SDS011;44322;52.968;5.816;2023-11-19T14:03:08;33.33;;;6.53;;
58528;SDS011;44322;52.968;5.816;2023-11-19T14:05:37;27.25;;;6.88;;
58528;SDS011;44322;52.968;5.816;2023-11-19T14:08:04;31.90;;;6.95;;
58528;SDS011;44322;52.968;5.816;2023-11-19T14:10:39;32.28;;;6.60;;
58528;SDS011;44322;52.968;5.816;2023-11-19T14:13:07;26.83;;;6.55;;
58528;SDS011;44322;52.968;5.816;2023-11-19T14:15:33;27.95;;;5.88;;
58528;SDS011;44322;52.968;5.816;2023-11-19T14:17:59;26.48;;;6.43;;
58528;SDS011;44322;52.968;5.816;2023-11-19T14:20:25;26.98;;;6.38;;
58528;SDS011;44322;52.968;5.816;2023-11-19T14:22:50;25.83;;;6.05;;
58528;SDS011;44322;52.968;5.816;2023-11-19T14:25:18;28.50;;;5.68;;
58528;SDS011;44322;52.968;5.816;2023-11-19T14:27:44;27.08;;;6.07;;
58528;SDS011;44322;52.968;5.816;2023-11-19T14:30:11;30.60;;;6.38;;
58528;SDS011;44322;52.968;5.816;2023-11-19T14:32:41;24.20;;;4.95;;
58528;SDS011;44322;52.968;5.816;2023-11-19T14:35:09;24.15;;;5.93;;
58528;SDS011;44322;52.968;5.816;2023-11-19T14:37:35;26.23;;;5.32;;
58528;SDS011;44322;52.968;5.816;2023-11-19T14:40:01;25.42;;;5.13;;
58528;SDS011;44322;52.968;5.816;2023-11-19T14:42:31;27.92;;;6.03;;
58528;SDS011;44322;52.968;5.816;2023-11-19T14:44:56;24.35;;;5.50;;
58528;SDS011;44322;52.968;5.816;2023-11-19T14:47:22;24.25;;;5.93;;
58528;SDS011;44322;52.968;5.816;2023-11-19T14:49:48;25.73;;;5.82;;
58528;SDS011;44322;52.968;5.816;2023-11-19T14:52:13;23.20;;;5.47;;
58528;SDS011;44322;52.968;5.816;2023-11-19T14:54:39;28.10;;;6.03;;
58528;SDS011;44322;52.968;5.816;2023-11-19T14:57:05;27.08;;;6.18;;
58528;SDS011;44322;52.968;5.816;2023-11-19T15:01:58;29.20;;;6.70;;
58528;SDS011;44322;52.968;5.816;2023-11-19T15:04:26;27.37;;;5.87;;
58528;SDS011;44322;52.968;5.816;2023-11-19T15:06:52;30.10;;;6.15;;
58528;SDS011;44322;52.968;5.816;2023-11-19T15:09:17;24.15;;;6.57;;
58528;SDS011;44322;52.968;5.816;2023-11-19T15:11:43;30.70;;;6.60;;
58528;SDS011;44322;52.968;5.816;2023-11-19T15:14:14;28.38;;;6.20;;
58528;SDS011;44322;52.968;5.816;2023-11-19T15:16:42;32.55;;;6.70;;
58528;SDS011;44322;52.968;5.816;2023-11-19T15:19:08;28.35;;;5.95;;
58528;SDS011;44322;52.968;5.816;2023-11-19T15:21:34;29.92;;;6.68;;
58528;SDS011;44322;52.968;5.816;2023-11-19T15:24:00;31.85;;;5.45;;
58528;SDS011;44322;52.968;5.816;2023-11-19T15:26:28;29.63;;;6.55;;
58528;SDS011;44322;52.968;5.816;2023-11-19T15:28:54;33.47;;;6.05;;
58528;SDS011;44322;52.968;5.816;2023-11-19T15:31:22;28.33;;;5.88;;
58528;SDS011;44322;52.968;5.816;2023-11-19T15:33:48;33.05;;;6.43;;
58528;SDS011;44322;52.968;5.816;2023-11-19T15:36:14;29.63;;;7.20;;
58528;SDS011;44322;52.968;5.816;2023-11-19T15:38:40;25.73;;;6.40;;
58528;SDS011;44322;52.968;5.816;2023-11-19T15:41:06;29.95;;;6.85;;
58528;SDS011;44322;52.968;5.816;2023-11-19T15:43:33;28.70;;;6.20;;
58528;SDS011;44322;52.968;5.816;2023-11-19T15:45:58;37.55;;;7.82;;
58528;SDS011;44322;52.968;5.816;2023-11-19T15:48:24;30.23;;;6.82;;
58528;SDS011;44322;52.968;5.816;2023-11-19T15:50:51;32.42;;;7.10;;
58528;SDS011;44322;52.968;5.816;2023-11-19T15:53:17;32.03;;;6.70;;
58528;SDS011;44322;52.968;5.816;2023-11-19T15:55:44;26.42;;;5.55;;
58528;SDS011;44322;52.968;5.816;2023-11-19T15:58:10;34.63;;;7.38;;
58528;SDS011;44322;52.968;5.816;2023-11-19T16:00:35;32.05;;;6.60;;
58528;SDS011;44322;52.968;5.816;2023-11-19T16:03:01;28.92;;;6.72;;
58528;SDS011;44322;52.968;5.816;2023-11-19T16:05:27;31.48;;;8.75;;
58528;SDS011;44322;52.968;5.816;2023-11-19T16:07:53;30.75;;;6.90;;
58528;SDS011;44322;52.968;5.816;2023-11-19T16:10:19;30.55;;;7.38;;
58528;SDS011;44322;52.968;5.816;2023-11-19T16:12:45;31.58;;;6.97;;
58528;SDS011;44322;52.968;5.816;2023-11-19T16:15:11;33.90;;;7.68;;
58528;SDS011;44322;52.968;5.816;2023-11-19T16:17:42;30.92;;;7.43;;
58528;SDS011;44322;52.968;5.816;2023-11-19T16:20:09;31.05;;;7.65;;
58528;SDS011;44322;52.968;5.816;2023-11-19T16:22:36;35.20;;;8.70;;
58528;SDS011;44322;52.968;5.816;2023-11-19T16:25:03;39.40;;;10.15;;
58528;SDS011;44322;52.968;5.816;2023-11-19T16:27:28;37.08;;;9.73;;
58528;SDS011;44322;52.968;5.816;2023-11-19T16:29:54;36.58;;;10.18;;
58528;SDS011;44322;52.968;5.816;2023-11-19T16:32:20;36.88;;;10.52;;
58528;SDS011;44322;52.968;5.816;2023-11-19T16:34:47;36.47;;;8.75;;
58528;SDS011;44322;52.968;5.816;2023-11-19T16:37:16;32.45;;;8.57;;
58528;SDS011;44322;52.968;5.816;2023-11-19T16:39:42;34.15;;;7.30;;
58528;SDS011;44322;52.968;5.816;2023-11-19T16:42:08;36.42;;;9.05;;
58528;SDS011;44322;52.968;5.816;2023-11-19T16:44:37;31.60;;;7.55;;
58528;SDS011;44322;52.968;5.816;2023-11-19T16:47:02;38.08;;;7.88;;
58528;SDS011;44322;52.968;5.816;2023-11-19T16:49:28;41.10;;;9.20;;
58528;SDS011;44322;52.968;5.816;2023-11-19T16:51:57;37.90;;;8.25;;
58528;SDS011;44322;52.968;5.816;2023-11-19T16:54:23;37.25;;;7.45;;
58528;SDS011;44322;52.968;5.816;2023-11-19T16:56:48;33.00;;;8.98;;
58528;SDS011;44322;52.968;5.816;2023-11-19T16:59:14;42.53;;;8.73;;
58528;SDS011;44322;52.968;5.816;2023-11-19T17:01:40;35.67;;;7.97;;
58528;SDS011;44322;52.968;5.816;2023-11-19T17:04:06;41.42;;;7.93;;
58528;SDS011;44322;52.968;5.816;2023-11-19T17:06:33;39.65;;;8.80;;
58528;SDS011;44322;52.968;5.816;2023-11-19T17:08:59;39.70;;;9.55;;
58528;SDS011;44322;52.968;5.816;2023-11-19T17:11:25;37.08;;;9.20;;
58528;SDS011;44322;52.968;5.816;2023-11-19T17:13:50;38.78;;;8.32;;
58528;SDS011;44322;52.968;5.816;2023-11-19T17:16:16;42.67;;;9.70;;
58528;SDS011;44322;52.968;5.816;2023-11-19T17:18:42;46.33;;;10.65;;
58528;SDS011;44322;52.968;5.816;2023-11-19T17:21:08;41.15;;;9.38;;
58528;SDS011;44322;52.968;5.816;2023-11-19T17:23:34;39.80;;;8.30;;
58528;SDS011;44322;52.968;5.816;2023-11-19T17:26:00;37.72;;;8.63;;
58528;SDS011;44322;52.968;5.816;2023-11-19T17:28:25;34.72;;;7.85;;
58528;SDS011;44322;52.968;5.816;2023-11-19T17:30:51;42.38;;;8.13;;
58528;SDS011;44322;52.968;5.816;2023-11-19T17:33:17;40.47;;;8.82;;
58528;SDS011;44322;52.968;5.816;2023-11-19T17:35:43;42.30;;;8.82;;
58528;SDS011;44322;52.968;5.816;2023-11-19T17:38:08;39.13;;;7.72;;
58528;SDS011;44322;52.968;5.816;2023-11-19T17:40:34;41.85;;;7.57;;
58528;SDS011;44322;52.968;5.816;2023-11-19T17:43:00;43.70;;;8.38;;
58528;SDS011;44322;52.968;5.816;2023-11-19T17:45:25;41.42;;;8.35;;
58528;SDS011;44322;52.968;5.816;2023-11-19T17:47:52;40.47;;;9.50;;
58528;SDS011;44322;52.968;5.816;2023-11-19T17:50:18;45.67;;;8.25;;
58528;SDS011;44322;52.968;5.816;2023-11-19T17:52:46;42.88;;;8.85;;
58528;SDS011;44322;52.968;5.816;2023-11-19T17:55:12;37.33;;;8.55;;
58528;SDS011;44322;52.968;5.816;2023-11-19T17:57:41;43.15;;;9.23;;
58528;SDS011;44322;52.968;5.816;2023-11-19T18:00:08;44.55;;;7.40;;
58528;SDS011;44322;52.968;5.816;2023-11-19T18:02:43;46.80;;;8.73;;
58528;SDS011;44322;52.968;5.816;2023-11-19T18:05:13;40.42;;;8.00;;
58528;SDS011;44322;52.968;5.816;2023-11-19T18:07:39;44.65;;;8.48;;
58528;SDS011;44322;52.968;5.816;2023-11-19T18:10:08;38.20;;;7.63;;
58528;SDS011;44322;52.968;5.816;2023-11-19T18:12:34;40.42;;;9.15;;
58528;SDS011;44322;52.968;5.816;2023-11-19T18:15:01;38.17;;;8.60;;
58528;SDS011;44322;52.968;5.816;2023-11-19T18:17:34;42.47;;;8.00;;
58528;SDS011;44322;52.968;5.816;2023-11-19T18:20:02;34.67;;;8.15;;
58528;SDS011;44322;52.968;5.816;2023-11-19T18:22:32;37.85;;;7.88;;
58528;SDS011;44322;52.968;5.816;2023-11-19T18:24:58;41.15;;;7.78;;
58528;SDS011;44322;52.968;5.816;2023-11-19T18:27:25;37.58;;;8.60;;
58528;SDS011;44322;52.968;5.816;2023-11-19T18:29:50;38.55;;;7.88;;
58528;SDS011;44322;52.968;5.816;2023-11-19T18:32:18;41.22;;;8.32;;
58528;SDS011;44322;52.968;5.816;2023-11-19T18:34:45;38.42;;;8.30;;
58528;SDS011;44322;52.968;5.816;2023-11-19T18:37:10;36.00;;;8.35;;
58528;SDS011;44322;52.968;5.816;2023-11-19T18:39:39;43.92;;;9.07;;
58528;SDS011;44322;52.968;5.816;2023-11-19T18:42:05;41.90;;;8.30;;
58528;SDS011;44322;52.968;5.816;2023-11-19T18:44:31;37.65;;;8.52;;
58528;SDS011;44322;52.968;5.816;2023-11-19T18:46:57;38.25;;;7.85;;
58528;SDS011;44322;52.968;5.816;2023-11-19T18:49:23;36.63;;;7.38;;
58528;SDS011;44322;52.968;5.816;2023-11-19T18:51:49;31.50;;;6.60;;
58528;SDS011;44322;52.968;5.816;2023-11-19T18:54:15;26.20;;;6.97;;
58528;SDS011;44322;52.968;5.816;2023-11-19T18:56:43;29.85;;;6.78;;
58528;SDS011;44322;52.968;5.816;2023-11-19T18:59:09;32.35;;;6.57;;
58528;SDS011;44322;52.968;5.816;2023-11-19T19:01:37;26.42;;;6.85;;
58528;SDS011;44322;52.968;5.816;2023-11-19T19:04:04;25.15;;;7.45;;
58528;SDS011;44322;52.968;5.816;2023-11-19T19:06:32;24.80;;;6.68;;
58528;SDS011;44322;52.968;5.816;2023-11-19T19:08:58;27.33;;;7.38;;
58528;SDS011;44322;52.968;5.816;2023-11-19T19:11:27;24.33;;;8.25;;
58528;SDS011;44322;52.968;5.816;2023-11-19T19:13:52;23.67;;;6.45;;
58528;SDS011;44322;52.968;5.816;2023-11-19T19:16:18;22.38;;;6.40;;
58528;SDS011;44322;52.968;5.816;2023-11-19T19:18:43;21.05;;;6.40;;
58528;SDS011;44322;52.968;5.816;2023-11-19T19:21:09;21.75;;;6.45;;
58528;SDS011;44322;52.968;5.816;2023-11-19T19:23:36;30.23;;;16.77;;
58528;SDS011;44322;52.968;5.816;2023-11-19T19:26:02;19.70;;;8.50;;
58528;SDS011;44322;52.968;5.816;2023-11-19T19:28:29;18.07;;;6.07;;
58528;SDS011;44322;52.968;5.816;2023-11-19T19:30:56;28.33;;;8.10;;
58528;SDS011;44322;52.968;5.816;2023-11-19T19:33:27;20.17;;;7.70;;
58528;SDS011;44322;52.968;5.816;2023-11-19T19:38:19;25.20;;;7.32;;
58528;SDS011;44322;52.968;5.816;2023-11-19T19:40:44;24.92;;;7.60;;
58528;SDS011;44322;52.968;5.816;2023-11-19T19:43:10;34.83;;;7.85;;
58528;SDS011;44322;52.968;5.816;2023-11-19T19:45:36;30.20;;;7.25;;
58528;SDS011;44322;52.968;5.816;2023-11-19T19:48:02;29.33;;;6.90;;
58528;SDS011;44322;52.968;5.816;2023-11-19T19:50:31;24.00;;;5.40;;
58528;SDS011;44322;52.968;5.816;2023-11-19T19:52:57;32.60;;;7.18;;
58528;SDS011;44322;52.968;5.816;2023-11-19T19:55:23;28.33;;;6.65;;
58528;SDS011;44322;52.968;5.816;2023-11-19T19:57:49;32.40;;;6.90;;
58528;SDS011;44322;52.968;5.816;2023-11-19T20:00:14;30.60;;;6.22;;
58528;SDS011;44322;52.968;5.816;2023-11-19T20:02:41;34.78;;;6.28;;
58528;SDS011;44322;52.968;5.816;2023-11-19T20:05:07;31.17;;;6.57;;
58528;SDS011;44322;52.968;5.816;2023-11-19T20:07:39;35.85;;;8.02;;
58528;SDS011;44322;52.968;5.816;2023-11-19T20:10:06;33.25;;;7.38;;
58528;SDS011;44322;52.968;5.816;2023-11-19T20:12:32;33.28;;;6.55;;
58528;SDS011;44322;52.968;5.816;2023-11-19T20:14:58;37.92;;;6.80;;
58528;SDS011;44322;52.968;5.816;2023-11-19T20:17:27;35.03;;;6.10;;
58528;SDS011;44322;52.968;5.816;2023-11-19T20:19:53;35.83;;;7.40;;
58528;SDS011;44322;52.968;5.816;2023-11-19T20:22:19;38.50;;;6.70;;
58528;SDS011;44322;52.968;5.816;2023-11-19T20:24:45;33.65;;;6.80;;
58528;SDS011;44322;52.968;5.816;2023-11-19T20:27:10;32.33;;;6.53;;
58528;SDS011;44322;52.968;5.816;2023-11-19T20:29:43;32.90;;;7.03;;
58528;SDS011;44322;52.968;5.816;2023-11-19T20:32:10;37.35;;;6.75;;
58528;SDS011;44322;52.968;5.816;2023-11-19T20:34:36;30.95;;;6.75;;
58528;SDS011;44322;52.968;5.816;2023-11-19T20:37:02;29.23;;;6.72;;
58528;SDS011;44322;52.968;5.816;2023-11-19T20:39:28;34.47;;;6.75;;
58528;SDS011;44322;52.968;5.816;2023-11-19T20:41:54;32.55;;;5.88;;
58528;SDS011;44322;52.968;5.816;2023-11-19T20:44:20;27.88;;;6.22;;
58528;SDS011;44322;52.968;5.816;2023-11-19T20:46:45;29.60;;;6.38;;
58528;SDS011;44322;52.968;5.816;2023-11-19T20:49:11;24.77;;;5.65;;
58528;SDS011;44322;52.968;5.816;2023-11-19T20:51:37;28.50;;;5.90;;
58528;SDS011;44322;52.968;5.816;2023-11-19T20:54:03;29.70;;;5.07;;
58528;SDS011;44322;52.968;5.816;2023-11-19T20:56:29;19.35;;;4.78;;
58528;SDS011;44322;52.968;5.816;2023-11-19T20:58:54;24.60;;;5.10;;
58528;SDS011;44322;52.968;5.816;2023-11-19T21:01:20;24.83;;;5.00;;
58528;SDS011;44322;52.968;5.816;2023-11-19T21:03:46;25.40;;;5.28;;
58528;SDS011;44322;52.968;5.816;2023-11-19T21:06:13;18.92;;;4.45;;
58528;SDS011;44322;52.968;5.816;2023-11-19T21:08:41;19.90;;;4.57;;
58528;SDS011;44322;52.968;5.816;2023-11-19T21:11:10;20.13;;;4.65;;
58528;SDS011;44322;52.968;5.816;2023-11-19T21:13:38;24.50;;;4.50;;
58528;SDS011;44322;52.968;5.816;2023-11-19T21:16:04;37.03;;;5.72;;
58528;SDS011;44322;52.968;5.816;2023-11-19T21:21:02;16.13;;;3.75;;
58528;SDS011;44322;52.968;5.816;2023-11-19T21:23:28;31.00;;;4.80;;
58528;SDS011;44322;52.968;5.816;2023-11-19T21:25:56;21.38;;;4.97;;
58528;SDS011;44322;52.968;5.816;2023-11-19T21:28:24;23.48;;;4.38;;
58528;SDS011;44322;52.968;5.816;2023-11-19T21:31:01;17.85;;;3.95;;
58528;SDS011;44322;52.968;5.816;2023-11-19T21:33:26;22.52;;;4.22;;
58528;SDS011;44322;52.968;5.816;2023-11-19T21:35:52;22.00;;;4.43;;
58528;SDS011;44322;52.968;5.816;2023-11-19T21:38:18;20.90;;;4.00;;
58528;SDS011;44322;52.968;5.816;2023-11-19T21:43:12;18.20;;;3.70;;
58528;SDS011;44322;52.968;5.816;2023-11-19T21:45:38;18.13;;;4.05;;
58528;SDS011;44322;52.968;5.816;2023-11-19T21:48:05;22.60;;;4.53;;
58528;SDS011;44322;52.968;5.816;2023-11-19T21:50:32;18.83;;;3.28;;
58528;SDS011;44322;52.968;5.816;2023-11-19T21:53:01;16.63;;;3.45;;
58528;SDS011;44322;52.968;5.816;2023-11-19T21:55:26;17.80;;;3.60;;
58528;SDS011;44322;52.968;5.816;2023-11-19T21:57:53;19.40;;;3.97;;
58528;SDS011;44322;52.968;5.816;2023-11-19T22:00:19;17.70;;;4.00;;
58528;SDS011;44322;52.968;5.816;2023-11-19T22:02:45;20.98;;;4.18;;
58528;SDS011;44322;52.968;5.816;2023-11-19T22:05:11;19.65;;;3.67;;
58528;SDS011;44322;52.968;5.816;2023-11-19T22:07:36;15.77;;;4.05;;
58528;SDS011;44322;52.968;5.816;2023-11-19T22:10:02;19.50;;;3.90;;
58528;SDS011;44322;52.968;5.816;2023-11-19T22:12:29;22.23;;;4.20;;
58528;SDS011;44322;52.968;5.816;2023-11-19T22:14:54;23.77;;;4.88;;
58528;SDS011;44322;52.968;5.816;2023-11-19T22:17:20;19.67;;;3.78;;
58528;SDS011;44322;52.968;5.816;2023-11-19T22:19:46;19.60;;;4.05;;
58528;SDS011;44322;52.968;5.816;2023-11-19T22:22:14;18.80;;;3.67;;
58528;SDS011;44322;52.968;5.816;2023-11-19T22:24:40;20.67;;;4.28;;
58528;SDS011;44322;52.968;5.816;2023-11-19T22:27:06;13.60;;;3.40;;
58528;SDS011;44322;52.968;5.816;2023-11-19T22:29:31;19.55;;;3.80;;
58528;SDS011;44322;52.968;5.816;2023-11-19T22:31:58;18.85;;;4.38;;
58528;SDS011;44322;52.968;5.816;2023-11-19T22:34:24;21.42;;;4.53;;
58528;SDS011;44322;52.968;5.816;2023-11-19T22:36:49;16.45;;;3.83;;
58528;SDS011;44322;52.968;5.816;2023-11-19T22:39:16;16.92;;;3.60;;
58528;SDS011;44322;52.968;5.816;2023-11-19T22:41:41;17.52;;;3.40;;
58528;SDS011;44322;52.968;5.816;2023-11-19T22:44:07;20.60;;;4.20;;
58528;SDS011;44322;52.968;5.816;2023-11-19T22:46:33;16.77;;;3.63;;
58528;SDS011;44322;52.968;5.816;2023-11-19T22:49:00;19.48;;;3.95;;
58528;SDS011;44322;52.968;5.816;2023-11-19T22:51:26;19.63;;;4.15;;
58528;SDS011;44322;52.968;5.816;2023-11-19T22:53:52;17.88;;;3.97;;
58528;SDS011;44322;52.968;5.816;2023-11-19T22:56:18;18.75;;;3.83;;
58528;SDS011;44322;52.968;5.816;2023-11-19T22:58:44;17.05;;;4.10;;
58528;SDS011;44322;52.968;5.816;2023-11-19T23:01:15;17.23;;;3.80;;
58528;SDS011;44322;52.968;5.816;2023-11-19T23:03:44;19.55;;;3.75;;
58528;SDS011;44322;52.968;5.816;2023-11-19T23:06:10;16.52;;;3.33;;
58528;SDS011;44322;52.968;5.816;2023-11-19T23:08:35;21.00;;;4.25;;
58528;SDS011;44322;52.968;5.816;2023-11-19T23:11:02;15.10;;;4.00;;
58528;SDS011;44322;52.968;5.816;2023-11-19T23:13:27;19.85;;;4.05;;
58528;SDS011;44322;52.968;5.816;2023-11-19T23:15:53;18.40;;;4.32;;
58528;SDS011;44322;52.968;5.816;2023-11-19T23:18:19;17.73;;;3.42;;
58528;SDS011;44322;52.968;5.816;2023-11-19T23:20:45;19.75;;;4.05;;
58528;SDS011;44322;52.968;5.816;2023-11-19T23:23:11;18.40;;;3.63;;
58528;SDS011;44322;52.968;5.816;2023-11-19T23:25:37;17.38;;;3.65;;
58528;SDS011;44322;52.968;5.816;2023-11-19T23:28:02;21.38;;;4.75;;
58528;SDS011;44322;52.968;5.816;2023-11-19T23:30:29;24.43;;;4.10;;
58528;SDS011;44322;52.968;5.816;2023-11-19T23:32:55;21.80;;;4.40;;
58528;SDS011;44322;52.968;5.816;2023-11-19T23:35:21;17.00;;;4.55;;
58528;SDS011;44322;52.968;5.816;2023-11-19T23:37:48;12.70;;;3.30;;
58528;SDS011;44322;52.968;5.816;2023-11-19T23:40:14;15.13;;;3.80;;
58528;SDS011;44322;52.968;5.816;2023-11-19T23:42:40;17.13;;;3.63;;
58528;SDS011;44322;52.968;5.816;2023-11-19T23:45:07;18.83;;;3.92;;
58528;SDS011;44322;52.968;5.816;2023-11-19T23:47:33;21.35;;;3.85;;
58528;SDS011;44322;52.968;5.816;2023-11-19T23:49:59;16.08;;;4.00;;
58528;SDS011;44322;52.968;5.816;2023-11-19T23:52:25;16.80;;;4.50;;
58528;SDS011;44322;52.968;5.816;2023-11-19T23:54:50;19.02;;;3.70;;
58528;SDS011;44322;52.968;5.816;2023-11-19T23:57:16;16.70;;;3.78;;
58528;SDS011;44322;52.968;5.816;2023-11-19T23:59:41;17.15;;;4.13;;
